createdAt,value
2024-05-09T00:01:10.038Z,0
2024-05-09T00:02:24.331Z,0
2024-05-09T00:03:38.625Z,0
2024-05-09T00:04:52.918Z,0
2024-05-09T00:06:07.211Z,0
2024-05-09T00:07:21.504Z,0
2024-05-09T00:08:35.798Z,0
2024-05-09T00:09:50.091Z,0
2024-05-09T00:11:04.384Z,0
2024-05-09T00:12:18.678Z,0
2024-05-09T00:13:32.971Z,0
2024-05-09T00:14:47.264Z,0
2024-05-09T00:16:01.557Z,0
2024-05-09T00:17:14.867Z,0
2024-05-09T00:18:29.160Z,0
2024-05-09T00:19:43.453Z,0
2024-05-09T00:20:57.746Z,0
2024-05-09T00:22:12.040Z,0
2024-05-09T00:23:26.333Z,0
2024-05-09T00:24:40.626Z,0
2024-05-09T00:25:54.919Z,0
2024-05-09T00:27:09.212Z,0
2024-05-09T00:28:23.505Z,0
2024-05-09T00:29:37.798Z,0
2024-05-09T00:30:52.091Z,0
2024-05-09T00:32:06.384Z,0
2024-05-09T00:33:19.694Z,0
2024-05-09T00:34:33.987Z,0
2024-05-09T00:35:48.280Z,0
2024-05-09T00:37:02.553Z,0
2024-05-09T00:38:16.867Z,0
2024-05-09T00:39:31.160Z,0
2024-05-09T00:40:45.453Z,0
2024-05-09T00:41:59.746Z,0
2024-05-09T00:43:14.040Z,0
2024-05-09T00:44:28.333Z,0
2024-05-09T00:45:42.626Z,0
2024-05-09T00:46:56.920Z,0
2024-05-09T00:48:11.213Z,0
2024-05-09T00:49:24.523Z,0
2024-05-09T00:50:38.816Z,0
2024-05-09T00:51:53.109Z,0
2024-05-09T00:53:07.402Z,0
2024-05-09T00:54:21.696Z,0
2024-05-09T00:55:35.989Z,0
2024-05-09T00:56:50.282Z,0
2024-05-09T00:58:04.576Z,0
2024-05-09T00:59:18.869Z,0
2024-05-09T01:00:33.162Z,0
2024-05-09T01:01:47.455Z,0
2024-05-09T01:03:01.749Z,0
2024-05-09T01:04:16.042Z,0
2024-05-09T01:05:29.352Z,0
2024-05-09T01:06:43.645Z,0
2024-05-09T01:07:57.940Z,0
2024-05-09T01:09:12.233Z,0
2024-05-09T01:10:26.526Z,0
2024-05-09T01:11:40.819Z,0
2024-05-09T01:12:55.112Z,0
2024-05-09T01:14:09.405Z,0
2024-05-09T01:15:23.698Z,0
2024-05-09T01:16:37.992Z,0
2024-05-09T01:17:52.285Z,0
2024-05-09T01:19:06.578Z,0
2024-05-09T01:20:20.851Z,0
2024-05-09T01:21:34.167Z,0
2024-05-09T01:22:48.474Z,0
2024-05-09T01:24:02.767Z,0
2024-05-09T01:25:17.060Z,0
2024-05-09T01:26:31.353Z,0
2024-05-09T01:27:45.647Z,0
2024-05-09T01:28:59.940Z,0
2024-05-09T01:30:14.234Z,0
2024-05-09T01:31:28.527Z,0
2024-05-09T01:32:42.820Z,0
2024-05-09T01:33:57.113Z,0
2024-05-09T01:35:11.407Z,0
2024-05-09T01:36:25.700Z,0
2024-05-09T01:37:39.010Z,0
2024-05-09T01:38:53.303Z,0
2024-05-09T01:40:07.596Z,0
2024-05-09T01:41:21.890Z,0
2024-05-09T01:42:36.148Z,0
2024-05-09T01:43:50.440Z,0
2024-05-09T01:45:04.769Z,0
2024-05-09T01:46:19.063Z,0
2024-05-09T01:47:33.356Z,0
2024-05-09T01:48:47.649Z,0
2024-05-09T01:50:01.943Z,0
2024-05-09T01:51:16.237Z,0
2024-05-09T01:52:30.530Z,0
2024-05-09T01:53:43.840Z,0
2024-05-09T01:54:58.133Z,0
2024-05-09T01:56:12.426Z,0
2024-05-09T01:57:26.719Z,0
2024-05-09T01:58:41.012Z,0
2024-05-09T01:59:55.305Z,0
2024-05-09T02:01:09.599Z,0
2024-05-09T02:02:23.892Z,0
2024-05-09T02:03:38.186Z,0
2024-05-09T02:04:52.479Z,0
2024-05-09T02:06:06.772Z,0
2024-05-09T02:07:21.023Z,0
2024-05-09T02:08:35.358Z,0
2024-05-09T02:09:48.668Z,0
2024-05-09T02:11:02.963Z,0
2024-05-09T02:12:17.256Z,0
2024-05-09T02:13:31.549Z,0
2024-05-09T02:14:45.843Z,0
2024-05-09T02:16:00.136Z,0
2024-05-09T02:17:14.429Z,0
2024-05-09T02:18:28.692Z,0
2024-05-09T02:19:43.016Z,0
2024-05-09T02:20:57.309Z,0
2024-05-09T02:22:11.561Z,0
2024-05-09T02:23:25.896Z,0
2024-05-09T02:24:40.189Z,0
2024-05-09T02:25:53.498Z,0
2024-05-09T02:27:07.791Z,0
2024-05-09T02:28:22.085Z,0
2024-05-09T02:29:36.378Z,0
2024-05-09T02:30:50.671Z,0
2024-05-09T02:32:04.964Z,0
2024-05-09T02:33:18.279Z,0
2024-05-09T02:34:32.572Z,0
2024-05-09T02:35:46.865Z,0
2024-05-09T02:37:01.158Z,0
2024-05-09T02:38:15.451Z,0
2024-05-09T02:39:29.745Z,0
2024-05-09T02:40:44.038Z,0
2024-05-09T02:41:58.331Z,0
2024-05-09T02:43:12.624Z,0
2024-05-09T02:44:26.886Z,0
2024-05-09T02:45:41.211Z,0
2024-05-09T02:46:55.504Z,0
2024-05-09T02:48:09.797Z,0
2024-05-09T02:49:23.107Z,0
2024-05-09T02:50:37.400Z,0
2024-05-09T02:51:51.695Z,0
2024-05-09T02:53:05.934Z,1
2024-05-09T02:54:20.228Z,0
2024-05-09T02:55:34.475Z,0
2024-05-09T02:56:48.772Z,1
2024-05-09T02:58:03.011Z,1
2024-05-09T02:59:17.215Z,1
2024-05-09T03:00:31.544Z,0
2024-05-09T03:01:45.837Z,0
2024-05-09T03:03:00.087Z,2
2024-05-09T03:04:14.327Z,1
2024-05-09T03:05:27.606Z,0
2024-05-09T03:06:41.887Z,2
2024-05-09T03:07:56.126Z,1
2024-05-09T03:09:10.365Z,1
2024-05-09T03:10:24.604Z,6
2024-05-09T03:11:38.844Z,3
2024-05-09T03:12:53.083Z,3
2024-05-09T03:14:07.322Z,3
2024-05-09T03:15:21.562Z,5
2024-05-09T03:16:35.801Z,6
2024-05-09T03:17:50.001Z,7
2024-05-09T03:19:04.279Z,6
2024-05-09T03:20:18.519Z,6
2024-05-09T03:21:31.774Z,9
2024-05-09T03:22:46.013Z,10
2024-05-09T03:24:00.253Z,14
2024-05-09T03:25:14.492Z,13
2024-05-09T03:26:28.732Z,16
2024-05-09T03:27:42.971Z,20
2024-05-09T03:28:57.210Z,21
2024-05-09T03:30:11.449Z,26
2024-05-09T03:31:25.689Z,28
2024-05-09T03:32:39.928Z,35
2024-05-09T03:33:54.167Z,34
2024-05-09T03:35:08.406Z,39
2024-05-09T03:36:22.645Z,41
2024-05-09T03:37:35.901Z,50
2024-05-09T03:38:50.140Z,55
2024-05-09T03:40:04.379Z,57
2024-05-09T03:41:18.618Z,60
2024-05-09T03:42:32.857Z,63
2024-05-09T03:43:47.096Z,61
2024-05-09T03:45:01.335Z,70
2024-05-09T03:46:15.574Z,76
2024-05-09T03:47:29.814Z,84
2024-05-09T03:48:44.053Z,91
2024-05-09T03:49:58.293Z,97
2024-05-09T03:51:12.532Z,109
2024-05-09T03:52:26.771Z,109
2024-05-09T03:53:40.027Z,118
2024-05-09T03:54:54.266Z,121
2024-05-09T03:56:08.505Z,122
2024-05-09T03:57:22.744Z,125
2024-05-09T03:58:36.984Z,138
2024-05-09T03:59:51.223Z,147
2024-05-09T04:01:05.462Z,161
2024-05-09T04:02:19.701Z,178
2024-05-09T04:03:33.941Z,182
2024-05-09T04:04:48.181Z,193
2024-05-09T04:06:02.420Z,197
2024-05-09T04:07:16.659Z,191
2024-05-09T04:08:30.898Z,204
2024-05-09T04:09:44.154Z,211
2024-05-09T04:10:58.393Z,227
2024-05-09T04:12:12.632Z,235
2024-05-09T04:13:26.872Z,236
2024-05-09T04:14:41.111Z,246
2024-05-09T04:15:55.350Z,263
2024-05-09T04:17:09.589Z,266
2024-05-09T04:18:23.829Z,272
2024-05-09T04:19:38.068Z,288
2024-05-09T04:20:52.307Z,302
2024-05-09T04:22:06.547Z,301
2024-05-09T04:23:20.786Z,317
2024-05-09T04:24:35.025Z,332
2024-05-09T04:25:48.281Z,339
2024-05-09T04:27:02.520Z,339
2024-05-09T04:28:16.759Z,332
2024-05-09T04:29:30.952Z,360
2024-05-09T04:30:45.238Z,394
2024-05-09T04:31:59.477Z,412
2024-05-09T04:33:13.717Z,430
2024-05-09T04:34:27.956Z,448
2024-05-09T04:35:42.195Z,459
2024-05-09T04:36:56.435Z,477
2024-05-09T04:38:10.674Z,481
2024-05-09T04:39:24.913Z,467
2024-05-09T04:40:39.153Z,487
2024-05-09T04:41:52.371Z,490
2024-05-09T04:43:06.647Z,494
2024-05-09T04:44:20.887Z,516
2024-05-09T04:45:35.126Z,524
2024-05-09T04:46:49.365Z,531
2024-05-09T04:48:03.606Z,527
2024-05-09T04:49:17.845Z,537
2024-05-09T04:50:32.084Z,525
2024-05-09T04:51:46.324Z,529
2024-05-09T04:53:00.563Z,540
2024-05-09T04:54:14.802Z,561
2024-05-09T04:55:29.042Z,456
2024-05-09T04:56:43.281Z,595
2024-05-09T04:57:56.536Z,619
2024-05-09T04:59:10.776Z,456
2024-05-09T05:00:25.015Z,579
2024-05-09T05:01:39.211Z,594
2024-05-09T05:02:53.494Z,590
2024-05-09T05:04:07.733Z,603
2024-05-09T05:05:21.973Z,602
2024-05-09T05:06:36.166Z,605
2024-05-09T05:07:50.451Z,620
2024-05-09T05:09:04.690Z,623
2024-05-09T05:10:18.930Z,635
2024-05-09T05:11:33.132Z,636
2024-05-09T05:12:47.409Z,633
2024-05-09T05:14:00.664Z,671
2024-05-09T05:15:14.903Z,704
2024-05-09T05:16:29.142Z,711
2024-05-09T05:17:43.382Z,694
2024-05-09T05:18:57.621Z,691
2024-05-09T05:20:11.860Z,703
2024-05-09T05:21:26.099Z,725
2024-05-09T05:22:40.339Z,756
2024-05-09T05:23:54.535Z,758
2024-05-09T05:25:08.817Z,789
2024-05-09T05:26:23.057Z,831
2024-05-09T05:27:37.296Z,852
2024-05-09T05:28:51.535Z,844
2024-05-09T05:30:04.790Z,855
2024-05-09T05:31:19.030Z,886
2024-05-09T05:32:33.269Z,932
2024-05-09T05:33:47.508Z,982
2024-05-09T05:35:01.748Z,1076
2024-05-09T05:36:15.944Z,1073
2024-05-09T05:37:30.226Z,1042
2024-05-09T05:38:44.465Z,833
2024-05-09T05:39:58.705Z,1010
2024-05-09T05:41:12.907Z,942
2024-05-09T05:42:27.183Z,887
2024-05-09T05:43:41.422Z,893
2024-05-09T05:44:55.662Z,908
2024-05-09T05:46:08.917Z,901
2024-05-09T05:47:23.156Z,912
2024-05-09T05:48:37.355Z,919
2024-05-09T05:49:51.635Z,1057
2024-05-09T05:51:05.843Z,1074
2024-05-09T05:52:20.113Z,1077
2024-05-09T05:53:34.352Z,924
2024-05-09T05:54:48.591Z,1090
2024-05-09T05:56:02.831Z,1064
2024-05-09T05:57:17.070Z,1181
2024-05-09T05:58:31.309Z,996
2024-05-09T05:59:45.548Z,953
2024-05-09T06:00:59.787Z,1113
2024-05-09T06:02:13.043Z,1025
2024-05-09T06:03:27.282Z,1114
2024-05-09T06:04:41.476Z,1036
2024-05-09T06:05:55.760Z,1047
2024-05-09T06:07:10.000Z,1017
2024-05-09T06:08:24.192Z,1051
2024-05-09T06:09:38.478Z,1152
2024-05-09T06:10:52.689Z,1303
2024-05-09T06:12:06.957Z,1378
2024-05-09T06:13:21.196Z,1042
2024-05-09T06:14:35.435Z,1775
2024-05-09T06:15:49.674Z,1430
2024-05-09T06:17:03.914Z,1362
2024-05-09T06:18:17.169Z,1602
2024-05-09T06:19:31.408Z,1319
2024-05-09T06:20:45.647Z,2092
2024-05-09T06:21:59.886Z,1710
2024-05-09T06:23:14.125Z,1719
2024-05-09T06:24:28.364Z,1287
2024-05-09T06:25:42.603Z,2330
2024-05-09T06:26:56.843Z,1806
2024-05-09T06:28:11.083Z,1776
2024-05-09T06:29:25.322Z,1700
2024-05-09T06:30:39.561Z,1881
2024-05-09T06:31:53.800Z,1525
2024-05-09T06:33:08.039Z,1389
2024-05-09T06:34:21.294Z,1881
2024-05-09T06:35:35.532Z,1892
2024-05-09T06:36:49.771Z,1743
2024-05-09T06:38:04.010Z,1434
2024-05-09T06:39:18.249Z,2011
2024-05-09T06:40:32.487Z,1185
2024-05-09T06:41:45.747Z,1894
2024-05-09T06:42:59.986Z,1796
2024-05-09T06:44:14.225Z,2111
2024-05-09T06:45:28.464Z,2468
2024-05-09T06:46:42.703Z,1478
2024-05-09T06:47:56.941Z,2199
2024-05-09T06:49:11.180Z,1836
2024-05-09T06:50:25.420Z,1623
2024-05-09T06:51:39.659Z,1675
2024-05-09T06:52:53.852Z,1728
2024-05-09T06:54:08.137Z,1713
2024-05-09T06:55:22.376Z,1633
2024-05-09T06:56:36.614Z,1621
2024-05-09T06:57:49.832Z,1619
2024-05-09T06:59:04.107Z,2062
2024-05-09T07:00:18.346Z,1448
2024-05-09T07:01:32.585Z,1625
2024-05-09T07:02:46.825Z,1520
2024-05-09T07:04:01.064Z,1663
2024-05-09T07:05:15.302Z,1676
2024-05-09T07:06:29.541Z,1623
2024-05-09T07:07:43.779Z,1603
2024-05-09T07:08:58.018Z,1696
2024-05-09T07:10:12.214Z,1658
2024-05-09T07:11:26.495Z,1509
2024-05-09T07:12:40.734Z,1679
2024-05-09T07:13:53.989Z,1452
2024-05-09T07:15:08.227Z,1674
2024-05-09T07:16:22.466Z,1598
2024-05-09T07:17:36.704Z,1508
2024-05-09T07:18:50.943Z,1646
2024-05-09T07:20:05.182Z,1671
2024-05-09T07:21:19.421Z,1518
2024-05-09T07:22:33.660Z,1607
2024-05-09T07:23:47.899Z,1654
2024-05-09T07:25:02.137Z,1659
2024-05-09T07:26:16.376Z,1641
2024-05-09T07:27:30.615Z,1674
2024-05-09T07:28:44.854Z,1716
2024-05-09T07:29:58.109Z,1706
2024-05-09T07:31:12.347Z,1713
2024-05-09T07:32:26.586Z,1728
2024-05-09T07:33:40.825Z,1732
2024-05-09T07:34:55.064Z,1741
2024-05-09T07:36:09.271Z,1756
2024-05-09T07:37:23.542Z,1766
2024-05-09T07:38:37.781Z,1774
2024-05-09T07:39:52.019Z,1807
2024-05-09T07:41:06.258Z,1810
2024-05-09T07:42:20.498Z,1778
2024-05-09T07:43:34.737Z,1832
2024-05-09T07:44:48.976Z,1846
2024-05-09T07:46:02.231Z,1845
2024-05-09T07:47:16.470Z,1851
2024-05-09T07:48:30.709Z,1875
2024-05-09T07:49:44.947Z,1866
2024-05-09T07:50:59.186Z,1893
2024-05-09T07:52:13.425Z,1946
2024-05-09T07:53:27.664Z,1943
2024-05-09T07:54:41.903Z,1921
2024-05-09T07:55:56.142Z,1925
2024-05-09T07:57:10.381Z,1977
2024-05-09T07:58:24.620Z,1982
2024-05-09T07:59:38.859Z,1990
2024-05-09T08:00:53.097Z,1983
2024-05-09T08:02:06.352Z,1993
2024-05-09T08:03:20.591Z,1985
2024-05-09T08:04:34.830Z,1973
2024-05-09T08:05:49.069Z,1957
2024-05-09T08:07:03.308Z,1934
2024-05-09T08:08:17.547Z,1917
2024-05-09T08:09:31.786Z,1901
2024-05-09T08:10:46.025Z,1842
2024-05-09T08:12:00.263Z,1848
2024-05-09T08:13:14.502Z,1818
2024-05-09T08:14:28.741Z,1789
2024-05-09T08:15:42.980Z,1838
2024-05-09T08:16:57.219Z,1802
2024-05-09T08:18:10.474Z,1816
2024-05-09T08:19:24.682Z,1803
2024-05-09T08:20:38.952Z,1796
2024-05-09T08:21:53.191Z,1819
2024-05-09T08:23:07.430Z,1840
2024-05-09T08:24:21.633Z,1839
2024-05-09T08:25:35.907Z,1834
2024-05-09T08:26:50.146Z,1857
2024-05-09T08:28:04.385Z,1904
2024-05-09T08:29:18.578Z,1850
2024-05-09T08:30:32.863Z,1896
2024-05-09T08:31:47.102Z,1903
2024-05-09T08:33:01.341Z,1913
2024-05-09T08:34:14.596Z,1952
2024-05-09T08:35:28.835Z,1960
2024-05-09T08:36:43.074Z,1971
2024-05-09T08:37:57.313Z,1978
2024-05-09T08:39:11.552Z,2000
2024-05-09T08:40:25.791Z,1941
2024-05-09T08:41:40.030Z,2041
2024-05-09T08:42:54.269Z,2063
2024-05-09T08:44:08.508Z,2119
2024-05-09T08:45:22.747Z,2136
2024-05-09T08:46:36.986Z,2189
2024-05-09T08:47:51.225Z,2209
2024-05-09T08:49:05.464Z,2239
2024-05-09T08:50:18.719Z,2232
2024-05-09T08:51:32.958Z,2306
2024-05-09T08:52:47.197Z,2344
2024-05-09T08:54:01.392Z,2366
2024-05-09T08:55:15.674Z,2409
2024-05-09T08:56:29.913Z,2395
2024-05-09T08:57:44.151Z,2421
2024-05-09T08:58:58.390Z,2422
2024-05-09T09:00:12.629Z,2478
2024-05-09T09:01:26.832Z,2555
2024-05-09T09:02:41.106Z,2531
2024-05-09T09:03:55.345Z,2660
2024-05-09T09:05:09.583Z,2700
2024-05-09T09:06:22.838Z,2705
2024-05-09T09:07:37.077Z,2653
2024-05-09T09:08:51.316Z,2627
2024-05-09T09:10:05.555Z,2667
2024-05-09T09:11:19.794Z,2888
2024-05-09T09:12:34.033Z,3038
2024-05-09T09:13:48.245Z,3235
2024-05-09T09:15:02.510Z,3238
2024-05-09T09:16:16.749Z,3097
2024-05-09T09:17:30.955Z,3189
2024-05-09T09:18:45.226Z,3723
2024-05-09T09:19:59.465Z,3962
2024-05-09T09:21:13.704Z,2641
2024-05-09T09:22:26.959Z,6854
2024-05-09T09:23:41.199Z,76091
2024-05-09T09:24:55.438Z,74481
2024-05-09T09:26:09.677Z,75002
2024-05-09T09:27:23.916Z,75941
2024-05-09T09:28:38.155Z,75203
2024-05-09T09:29:52.394Z,72617
2024-05-09T09:31:06.633Z,39270
2024-05-09T09:32:20.872Z,8259
2024-05-09T09:33:35.110Z,78090
2024-05-09T09:34:49.349Z,76160
2024-05-09T09:36:03.588Z,73505
2024-05-09T09:37:17.827Z,75612
2024-05-09T09:38:31.082Z,74324
2024-05-09T09:39:45.320Z,71384
2024-05-09T09:40:59.559Z,31687
2024-05-09T09:42:13.799Z,29091
2024-05-09T09:43:28.037Z,74588
2024-05-09T09:44:42.276Z,72287
2024-05-09T09:45:56.515Z,32456
2024-05-09T09:47:10.754Z,75786
2024-05-09T09:48:24.993Z,74608
2024-05-09T09:49:39.232Z,73337
2024-05-09T09:50:53.471Z,74249
2024-05-09T09:52:07.710Z,61567
2024-05-09T09:53:21.949Z,7853
2024-05-09T09:54:35.168Z,6910
2024-05-09T09:55:49.443Z,68101
2024-05-09T09:57:03.682Z,12515
2024-05-09T09:58:17.921Z,74319
2024-05-09T09:59:32.160Z,71605
2024-05-09T10:00:46.399Z,28137
2024-05-09T10:02:00.638Z,32664
2024-05-09T10:03:14.878Z,73796
2024-05-09T10:04:29.117Z,73399
2024-05-09T10:05:43.356Z,72488
2024-05-09T10:06:57.595Z,29995
2024-05-09T10:08:11.834Z,26633
2024-05-09T10:09:26.035Z,74590
2024-05-09T10:10:39.328Z,74133
2024-05-09T10:11:53.567Z,74790
2024-05-09T10:13:07.806Z,74345
2024-05-09T10:14:22.045Z,74267
2024-05-09T10:15:36.284Z,74856
2024-05-09T10:16:50.491Z,58373
2024-05-09T10:18:04.774Z,75182
2024-05-09T10:19:19.013Z,76206
2024-05-09T10:20:33.252Z,75518
2024-05-09T10:21:47.491Z,73052
2024-05-09T10:23:01.730Z,72668
2024-05-09T10:24:15.935Z,30438
2024-05-09T10:25:30.209Z,73508
2024-05-09T10:26:43.464Z,74003
2024-05-09T10:27:57.661Z,74112
2024-05-09T10:29:11.942Z,74381
2024-05-09T10:30:26.181Z,74328
2024-05-09T10:31:40.378Z,73800
2024-05-09T10:32:54.659Z,73671
2024-05-09T10:34:08.898Z,72380
2024-05-09T10:35:23.137Z,32292
2024-05-09T10:36:37.376Z,33294
2024-05-09T10:37:51.616Z,33296
2024-05-09T10:39:05.855Z,37295
2024-05-09T10:40:20.094Z,27353
2024-05-09T10:41:34.333Z,30528
2024-05-09T10:42:47.588Z,32589
2024-05-09T10:44:01.827Z,30390
2024-05-09T10:45:16.032Z,29360
2024-05-09T10:46:30.306Z,31288
2024-05-09T10:47:44.545Z,33852
2024-05-09T10:48:58.784Z,28446
2024-05-09T10:50:12.044Z,32033
2024-05-09T10:51:26.283Z,32085
2024-05-09T10:52:40.523Z,22635
2024-05-09T10:53:54.762Z,32710
2024-05-09T10:55:09.001Z,31975
2024-05-09T10:56:23.240Z,31656
2024-05-09T10:57:37.479Z,27336
2024-05-09T10:58:51.718Z,34166
2024-05-09T11:00:05.958Z,31898
2024-05-09T11:01:20.197Z,27993
2024-05-09T11:02:34.436Z,32803
2024-05-09T11:03:48.675Z,17668
2024-05-09T11:05:02.914Z,4527
2024-05-09T11:06:16.169Z,2580
2024-05-09T11:07:30.408Z,13001
2024-05-09T11:08:44.648Z,2634
2024-05-09T11:09:58.887Z,3485
2024-05-09T11:11:13.126Z,24098
2024-05-09T11:12:27.365Z,57591
2024-05-09T11:13:41.604Z,5119
2024-05-09T11:14:55.843Z,3640
2024-05-09T11:16:10.081Z,3023
2024-05-09T11:17:24.320Z,3092
2024-05-09T11:18:38.560Z,10773
2024-05-09T11:19:52.798Z,25482
2024-05-09T11:21:07.037Z,27849
2024-05-09T11:22:20.292Z,24521
2024-05-09T11:23:34.531Z,30969
2024-05-09T11:24:48.770Z,22518
2024-05-09T11:26:03.020Z,28697
2024-05-09T11:27:17.259Z,27722
2024-05-09T11:28:31.498Z,30542
2024-05-09T11:29:45.737Z,29843
2024-05-09T11:30:59.976Z,20225
2024-05-09T11:32:14.215Z,3380
2024-05-09T11:33:28.454Z,17805
2024-05-09T11:34:42.693Z,27354
2024-05-09T11:35:56.931Z,22327
2024-05-09T11:37:11.170Z,23391
2024-05-09T11:38:24.425Z,3786
2024-05-09T11:39:38.664Z,21625
2024-05-09T11:40:52.903Z,22091
2024-05-09T11:42:07.142Z,8042
2024-05-09T11:43:21.381Z,5976
2024-05-09T11:44:35.620Z,9730
2024-05-09T11:45:49.859Z,11083
2024-05-09T11:47:04.068Z,3511
2024-05-09T11:48:18.337Z,4981
2024-05-09T11:49:32.576Z,12407
2024-05-09T11:50:46.815Z,3669
2024-05-09T11:52:01.054Z,3103
2024-05-09T11:53:15.293Z,3355
2024-05-09T11:54:28.548Z,3216
2024-05-09T11:55:42.787Z,3131
2024-05-09T11:56:57.025Z,3957
2024-05-09T11:58:11.264Z,3870
2024-05-09T11:59:25.503Z,2438
2024-05-09T12:00:39.742Z,2548
2024-05-09T12:01:53.981Z,16915
2024-05-09T12:03:08.220Z,20929
2024-05-09T12:04:22.459Z,15991
2024-05-09T12:05:36.698Z,11362
2024-05-09T12:06:50.937Z,21868
2024-05-09T12:08:05.176Z,12188
2024-05-09T12:09:19.415Z,10430
2024-05-09T12:10:32.670Z,12561
2024-05-09T12:11:46.908Z,17165
2024-05-09T12:13:01.148Z,18155
2024-05-09T12:14:15.386Z,9790
2024-05-09T12:15:29.625Z,5621
2024-05-09T12:16:43.864Z,11537
2024-05-09T12:17:58.103Z,17354
2024-05-09T12:19:12.342Z,4011
2024-05-09T12:20:26.581Z,9884
2024-05-09T12:21:40.820Z,5287
2024-05-09T12:22:55.059Z,4785
2024-05-09T12:24:09.298Z,7499
2024-05-09T12:25:23.537Z,5012
2024-05-09T12:26:36.792Z,2204
2024-05-09T12:27:51.031Z,8034
2024-05-09T12:29:05.270Z,15834
2024-05-09T12:30:19.509Z,4906
2024-05-09T12:31:33.748Z,8823
2024-05-09T12:32:47.986Z,8831
2024-05-09T12:34:02.226Z,4589
2024-05-09T12:35:16.465Z,5326
2024-05-09T12:36:30.703Z,3108
2024-05-09T12:37:44.942Z,1025
2024-05-09T12:38:59.181Z,3345
2024-05-09T12:40:13.420Z,7225
2024-05-09T12:41:27.659Z,7671
2024-05-09T12:42:40.914Z,3210
2024-05-09T12:43:55.153Z,8410
2024-05-09T12:45:09.392Z,4594
2024-05-09T12:46:23.631Z,3666
2024-05-09T12:47:37.870Z,2633
2024-05-09T12:48:52.109Z,5224
2024-05-09T12:50:06.348Z,4231
2024-05-09T12:51:20.587Z,5169
2024-05-09T12:52:34.826Z,5017
2024-05-09T12:53:49.064Z,3807
2024-05-09T12:55:03.304Z,2670
2024-05-09T12:56:17.542Z,3081
2024-05-09T12:57:31.781Z,3124
2024-05-09T12:58:45.036Z,4522
2024-05-09T12:59:59.275Z,970
2024-05-09T13:01:13.514Z,1678
2024-05-09T13:02:27.753Z,8430
2024-05-09T13:03:41.946Z,5691
2024-05-09T13:04:56.230Z,6682
2024-05-09T13:06:10.470Z,10174
2024-05-09T13:07:24.708Z,7928
2024-05-09T13:08:38.947Z,3968
2024-05-09T13:09:53.186Z,6696
2024-05-09T13:11:07.425Z,7024
2024-05-09T13:12:21.664Z,3981
2024-05-09T13:13:35.903Z,3287
2024-05-09T13:14:49.158Z,5067
2024-05-09T13:16:03.396Z,2472
2024-05-09T13:17:17.636Z,3900
2024-05-09T13:18:31.875Z,2969
2024-05-09T13:19:46.113Z,4025
2024-05-09T13:21:00.352Z,6299
2024-05-09T13:22:14.591Z,2582
2024-05-09T13:23:28.830Z,826
2024-05-09T13:24:43.069Z,3134
2024-05-09T13:25:57.279Z,3159
2024-05-09T13:27:11.547Z,3293
2024-05-09T13:28:25.785Z,3109
2024-05-09T13:29:40.025Z,3171
2024-05-09T13:30:53.280Z,684
2024-05-09T13:32:07.519Z,2517
2024-05-09T13:33:21.758Z,2521
2024-05-09T13:34:35.997Z,2553
2024-05-09T13:35:50.236Z,2435
2024-05-09T13:37:04.474Z,2235
2024-05-09T13:38:18.714Z,2546
2024-05-09T13:39:32.952Z,2566
2024-05-09T13:40:47.191Z,2539
2024-05-09T13:42:01.430Z,2533
2024-05-09T13:43:15.669Z,2393
2024-05-09T13:44:29.908Z,2296
2024-05-09T13:45:44.147Z,2348
2024-05-09T13:46:57.402Z,2362
2024-05-09T13:48:11.640Z,2324
2024-05-09T13:49:25.881Z,3122
2024-05-09T13:50:40.119Z,2452
2024-05-09T13:51:54.358Z,1623
2024-05-09T13:53:08.597Z,583
2024-05-09T13:54:22.836Z,2050
2024-05-09T13:55:37.074Z,1910
2024-05-09T13:56:51.313Z,2026
2024-05-09T13:58:05.552Z,2492
2024-05-09T13:59:19.791Z,1542
2024-05-09T14:00:34.030Z,1513
2024-05-09T14:01:48.270Z,1462
2024-05-09T14:03:01.525Z,1474
2024-05-09T14:04:15.763Z,1332
2024-05-09T14:05:30.001Z,1284
2024-05-09T14:06:44.240Z,1478
2024-05-09T14:07:58.479Z,474
2024-05-09T14:09:12.718Z,1960
2024-05-09T14:10:26.958Z,2054
2024-05-09T14:11:41.197Z,1367
2024-05-09T14:12:55.436Z,1370
2024-05-09T14:14:09.675Z,453
2024-05-09T14:15:23.914Z,1363
2024-05-09T14:16:38.153Z,1688
2024-05-09T14:17:52.392Z,1542
2024-05-09T14:19:05.647Z,1615
2024-05-09T14:20:19.886Z,1548
2024-05-09T14:21:34.125Z,1481
2024-05-09T14:22:48.364Z,1571
2024-05-09T14:24:02.604Z,1608
2024-05-09T14:25:16.843Z,1554
2024-05-09T14:26:31.081Z,1501
2024-05-09T14:27:45.320Z,1495
2024-05-09T14:28:59.560Z,1407
2024-05-09T14:30:13.799Z,1366
2024-05-09T14:31:28.038Z,1376
2024-05-09T14:32:42.277Z,1508
2024-05-09T14:33:56.516Z,1486
2024-05-09T14:35:09.771Z,1439
2024-05-09T14:36:24.009Z,1418
2024-05-09T14:37:38.248Z,1395
2024-05-09T14:38:52.488Z,1345
2024-05-09T14:40:06.727Z,1327
2024-05-09T14:41:20.966Z,1361
2024-05-09T14:42:35.206Z,1347
2024-05-09T14:43:49.445Z,1342
2024-05-09T14:45:03.684Z,1272
2024-05-09T14:46:17.923Z,1263
2024-05-09T14:47:32.162Z,1212
2024-05-09T14:48:46.401Z,1747
2024-05-09T14:50:00.640Z,1710
2024-05-09T14:51:13.896Z,418
2024-05-09T14:52:28.095Z,1257
2024-05-09T14:53:42.374Z,1724
2024-05-09T14:54:56.613Z,364
2024-05-09T14:56:10.852Z,772
2024-05-09T14:57:25.090Z,1140
2024-05-09T14:58:38.351Z,1072
2024-05-09T15:01:06.829Z,1077
2024-05-09T15:02:21.068Z,1108
2024-05-09T15:03:35.307Z,1014
2024-05-09T15:04:49.546Z,1007
2024-05-09T15:06:03.786Z,1051
2024-05-09T15:07:18.025Z,1017
2024-05-09T15:08:32.264Z,1014
2024-05-09T15:09:46.503Z,1065
2024-05-09T15:11:00.742Z,1159
2024-05-09T15:12:14.981Z,1178
2024-05-09T15:13:29.220Z,1124
2024-05-09T15:14:42.475Z,1124
2024-05-09T15:15:56.715Z,1129
2024-05-09T15:17:10.954Z,1080
2024-05-09T15:18:25.193Z,1003
2024-05-09T15:19:39.432Z,1004
2024-05-09T15:20:53.671Z,1055
2024-05-09T15:22:07.910Z,1073
2024-05-09T15:23:22.149Z,1080
2024-05-09T15:24:36.388Z,1066
2024-05-09T15:25:50.627Z,1002
2024-05-09T15:27:04.866Z,927
2024-05-09T15:28:19.105Z,916
2024-05-09T15:29:33.345Z,910
2024-05-09T15:30:46.600Z,905
2024-05-09T15:32:00.839Z,894
2024-05-09T15:33:15.078Z,895
2024-05-09T15:34:29.317Z,872
2024-05-09T15:35:43.556Z,897
2024-05-09T15:36:57.795Z,870
2024-05-09T15:38:12.034Z,865
2024-05-09T15:39:26.273Z,844
2024-05-09T15:40:40.512Z,842
2024-05-09T15:41:54.751Z,886
2024-05-09T15:43:08.990Z,803
2024-05-09T15:44:23.229Z,833
2024-05-09T15:45:37.469Z,822
2024-05-09T15:46:50.724Z,784
2024-05-09T15:48:04.963Z,784
2024-05-09T15:49:19.158Z,827
2024-05-09T15:50:33.441Z,861
2024-05-09T15:51:47.640Z,829
2024-05-09T15:53:01.919Z,1064
2024-05-09T15:54:16.158Z,525
2024-05-09T15:55:30.397Z,764
2024-05-09T15:56:44.636Z,746
2024-05-09T15:57:58.875Z,676
2024-05-09T15:59:13.114Z,961
2024-05-09T16:00:27.353Z,1059
2024-05-09T16:01:41.592Z,790
2024-05-09T16:02:54.847Z,861
2024-05-09T16:04:09.086Z,746
2024-05-09T16:05:23.325Z,714
2024-05-09T16:06:37.564Z,935
2024-05-09T16:07:51.803Z,1332
2024-05-09T16:09:05.998Z,837
2024-05-09T16:10:20.281Z,914
2024-05-09T16:11:34.520Z,711
2024-05-09T16:12:48.759Z,917
2024-05-09T16:14:02.998Z,784
2024-05-09T16:15:17.237Z,827
2024-05-09T16:16:31.476Z,778
2024-05-09T16:17:45.715Z,792
2024-05-09T16:18:58.970Z,765
2024-05-09T16:20:13.209Z,742
2024-05-09T16:21:27.448Z,646
2024-05-09T16:22:41.687Z,767
2024-05-09T16:23:55.926Z,680
2024-05-09T16:25:10.165Z,659
2024-05-09T16:26:24.404Z,651
2024-05-09T16:27:38.642Z,687
2024-05-09T16:28:52.882Z,815
2024-05-09T16:30:07.122Z,649
2024-05-09T16:31:21.307Z,705
2024-05-09T16:32:35.598Z,702
2024-05-09T16:33:49.837Z,737
2024-05-09T16:35:03.092Z,585
2024-05-09T16:36:17.331Z,636
2024-05-09T16:37:31.570Z,617
2024-05-09T16:38:45.776Z,687
2024-05-09T16:40:00.048Z,615
2024-05-09T16:41:14.288Z,651
2024-05-09T16:42:28.527Z,678
2024-05-09T16:43:42.765Z,589
2024-05-09T16:44:57.005Z,582
2024-05-09T16:46:11.244Z,612
2024-05-09T16:47:25.483Z,658
2024-05-09T16:48:39.722Z,645
2024-05-09T16:49:53.961Z,693
2024-05-09T16:51:07.216Z,598
2024-05-09T16:52:21.455Z,593
2024-05-09T16:53:35.694Z,614